Time;durP1;ratioP1;P1;durP2;ratioP2;P2;SDS_P1;SDS_P2;PMS_P1;PMS_P2;Temp;Humidity;BMP_temperature;BMP_pressure;BME280_temperature;BME280_humidity;BME280_pressure;Samples;Min_cycle;Max_cycle;Signal;HPM_P1;HPM_P2
2023/02/19 00:03:04;;;;;;;4.07;3.50;;;;;;;12.04;67.58;100679.44;12638696;23;20022;-60
2023/02/19 00:08:06;;;;;;;5.03;3.35;;;;;;;12.05;67.39;100678.44;12644370;23;20027;-67
2023/02/19 00:13:07;;;;;;;9.07;3.30;;;;;;;12.13;67.52;100656.00;12647257;23;20053;-62
2023/02/19 00:18:09;;;;;;;4.68;3.00;;;;;;;12.15;67.53;100655.84;12643142;23;20041;-62
2023/02/19 00:23:10;;;;;;;5.97;3.17;;;;;;;12.18;66.98;100653.59;12608458;23;20129;-62
2023/02/19 00:28:11;;;;;;;5.30;2.97;;;;;;;12.24;67.18;100661.00;12642845;23;20034;-61
2023/02/19 00:33:13;;;;;;;2.80;2.50;;;;;;;12.30;66.96;100659.41;12643694;23;20054;-62
2023/02/19 00:38:14;;;;;;;3.70;2.85;;;;;;;12.25;67.09;100661.81;12640949;23;20065;-63
2023/02/19 00:43:16;;;;;;;2.67;2.40;;;;;;;12.33;66.38;100660.94;12646260;23;20006;-62
2023/02/19 00:48:17;;;;;;;5.13;2.25;;;;;;;12.34;66.44;100657.19;12622018;23;20022;-61
2023/02/19 00:53:18;;;;;;;2.53;2.22;;;;;;;12.36;66.43;100647.94;12648749;23;20146;-61
2023/02/19 00:58:20;;;;;;;3.92;2.60;;;;;;;12.38;66.62;100640.50;12646956;23;20423;-62
2023/02/19 01:03:21;;;;;;;3.47;2.28;;;;;;;12.35;66.27;100640.84;12646418;23;20097;-62
2023/02/19 01:08:23;;;;;;;4.13;2.90;;;;;;;12.32;66.82;100630.41;12646939;23;20108;-61
2023/02/19 01:13:25;;;;;;;4.07;2.13;;;;;;;12.34;66.86;100620.28;12659996;23;20081;-60
2023/02/19 01:18:26;;;;;;;3.35;2.00;;;;;;;12.40;66.70;100624.13;12645612;23;20037;-61
2023/02/19 01:23:27;;;;;;;3.50;2.15;;;;;;;12.39;66.81;100620.59;12647008;23;20106;-61
2023/02/19 01:28:29;;;;;;;2.30;2.08;;;;;;;12.37;67.12;100628.03;12648288;23;20045;-63
2023/02/19 01:33:31;;;;;;;5.15;2.25;;;;;;;12.34;66.74;100619.47;12642514;23;20019;-61
2023/02/19 01:38:32;;;;;;;3.55;2.42;;;;;;;12.35;66.93;100618.44;12650685;23;20036;-60
2023/02/19 01:43:55;;;;;;;3.13;2.42;;;;;;;12.20;67.54;100611.13;12646487;23;20018;-61
2023/02/19 01:49:08;;;;;;;2.08;1.77;;;;;;;12.09;68.01;100604.31;12646472;23;20053;-62
2023/02/19 01:54:12;;;;;;;2.53;2.15;;;;;;;12.09;68.02;100603.50;12642498;23;20018;-61
2023/02/19 01:59:15;;;;;;;3.50;2.17;;;;;;;12.08;68.31;100591.88;12647241;23;20026;-61
2023/02/19 02:04:17;;;;;;;3.28;2.10;;;;;;;12.10;67.95;100591.69;12645700;23;20022;-60
2023/02/19 02:14:46;;;;;;;1.88;1.52;;;;;;;12.20;67.53;100568.00;12647103;23;20018;-61
2023/02/19 02:20:16;;;;;;;4.43;1.83;;;;;;;12.19;68.18;100569.03;12657207;23;20035;-61
2023/02/19 02:25:35;;;;;;;2.63;2.33;;;;;;;12.22;67.57;100575.91;12646648;23;20028;-60
2023/02/19 02:31:01;;;;;;;4.68;2.50;;;;;;;12.23;67.97;100567.66;12645695;23;20053;-61
2023/02/19 02:36:17;;;;;;;2.78;2.28;;;;;;;12.17;68.33;100562.16;12630623;23;20013;-60
2023/02/19 02:41:19;;;;;;;5.38;2.30;;;;;;;12.06;68.55;100569.63;12646750;23;20581;-60
2023/02/19 02:46:32;;;;;;;2.47;2.05;;;;;;;12.00;68.97;100554.19;12644883;23;20030;-60
2023/02/19 02:51:45;;;;;;;4.25;2.55;;;;;;;11.89;69.36;100547.38;12642813;23;20006;-62
2023/02/19 02:56:48;;;;;;;3.90;3.22;;;;;;;11.89;69.44;100546.56;12641053;23;20117;-61
2023/02/19 03:02:17;;;;;;;8.20;2.80;;;;;;;11.90;69.45;100532.06;12645285;23;20034;-60
2023/02/19 03:07:19;;;;;;;7.25;3.15;;;;;;;11.88;69.21;100537.59;12644097;23;20007;-61
2023/02/19 03:23:13;;;;;;;4.15;2.40;;;;;;;11.94;69.13;100537.94;12639997;23;20053;-61
2023/02/19 03:28:19;;;;;;;2.83;1.40;;;;;;;12.01;68.96;100530.81;12639965;23;20049;-61
2023/02/19 03:33:44;;;;;;;4.03;1.92;;;;;;;12.05;68.91;100524.88;12642621;23;20022;-61
2023/02/19 03:38:51;;;;;;;2.30;1.25;;;;;;;12.02;68.95;100533.28;12644354;23;20036;-60
2023/02/19 03:44:00;;;;;;;;;;;;;;;11.99;69.38;100533.69;12640362;23;20057;-60
2023/02/19 03:49:38;;;;;;;2.40;1.70;;;;;;;11.99;69.27;100540.94;12640880;23;19921;-61
2023/02/19 03:54:56;;;;;;;2.30;1.33;;;;;;;11.97;69.20;100541.09;12567313;23;20026;-60
2023/02/19 04:00:08;;;;;;;1.38;0.70;;;;;;;12.03;69.14;100545.75;12643356;23;20023;-60
2023/02/19 04:05:15;;;;;;;1.67;0.50;;;;;;;12.08;69.28;100543.38;12647083;23;20022;-61
2023/02/19 04:10:17;;;;;;;;;;;;;;;12.16;69.18;100545.13;12648083;23;20032;-61
2023/02/19 04:15:23;;;;;;;0.98;0.55;;;;;;;12.15;68.99;100556.13;12646298;23;19905;-61
2023/02/19 04:20:29;;;;;;;1.38;0.40;;;;;;;12.13;68.90;100556.28;12647530;23;20014;-62
2023/02/19 04:25:32;;;;;;;0.93;0.45;;;;;;;12.17;69.39;100546.00;12646775;23;20019;-61
2023/02/19 04:30:33;;;;;;;0.52;0.40;;;;;;;12.09;69.26;100550.44;12649445;23;20025;-61
2023/02/19 04:35:35;;;;;;;1.27;0.80;;;;;;;12.08;69.84;100564.94;12646321;23;20015;-61
2023/02/19 04:40:36;;;;;;;1.60;1.02;;;;;;;12.06;69.50;100563.41;12645707;23;20085;-60
2023/02/19 04:45:38;;;;;;;1.35;0.70;;;;;;;11.97;69.75;100562.66;12643029;23;20030;-60
2023/02/19 04:50:39;;;;;;;1.70;0.80;;;;;;;11.96;69.63;100574.44;12653394;23;20139;-61
2023/02/19 04:55:41;;;;;;;1.65;0.95;;;;;;;12.01;69.67;100584.69;12656488;23;20026;-60
2023/02/19 05:00:42;;;;;;;2.15;0.70;;;;;;;11.98;69.80;100591.25;12647627;23;20069;-60
2023/02/19 05:05:44;;;;;;;1.02;0.60;;;;;;;12.01;69.52;100590.09;12645627;23;20014;-61
2023/02/19 05:10:45;;;;;;;0.98;0.70;;;;;;;12.08;69.09;100591.88;12648426;23;20014;-61
2023/02/19 05:15:58;;;;;;;0.90;0.60;;;;;;;12.13;68.88;100583.25;12648575;23;20015;-60
2023/02/19 05:21:00;;;;;;;1.58;0.60;;;;;;;12.12;69.00;100595.03;12649074;23;20078;-61
2023/02/19 05:26:16;;;;;;;0.63;0.40;;;;;;;12.18;68.61;100602.38;12652413;23;20070;-60
2023/02/19 05:31:19;;;;;;;0.90;0.30;;;;;;;12.20;68.81;100596.81;12650999;23;20026;-61
2023/02/19 05:36:21;;;;;;;1.38;0.77;;;;;;;12.22;68.39;100595.66;12648769;23;20021;-61
2023/02/19 05:41:25;;;;;;;0.50;0.30;;;;;;;12.24;68.11;100600.84;12650381;23;20074;-62
2023/02/19 05:46:28;;;;;;;3.00;1.70;;;;;;;12.29;68.05;100593.06;12649321;23;20107;-61
2023/02/19 05:51:30;;;;;;;1.02;0.50;;;;;;;12.24;68.60;100620.56;12651793;23;20664;-62
2023/02/19 05:56:39;;;;;;;0.80;0.20;;;;;;;12.23;68.61;100640.44;12650956;23;20124;-62
2023/02/19 06:01:41;;;;;;;0.38;0.20;;;;;;;12.25;68.56;100634.88;12626452;23;20025;-61
2023/02/19 06:06:42;;;;;;;0.10;0.10;;;;;;;12.24;68.14;100649.34;12650506;23;20028;-62
2023/02/19 06:11:44;;;;;;;0.60;0.20;;;;;;;12.23;67.93;100661.16;12646161;23;20086;-61
2023/02/19 06:16:45;;;;;;;1.50;0.20;;;;;;;12.32;67.94;100667.31;12645814;23;20082;-63
2023/02/19 06:21:49;;;;;;;5.85;0.77;;;;;;;12.33;67.44;100675.22;12648206;23;20124;-61
2023/02/19 06:26:50;;;;;;;0.57;0.20;;;;;;;12.37;67.48;100703.50;12643800;23;20132;-61
2023/02/19 06:31:52;;;;;;;1.27;0.50;;;;;;;12.32;67.53;100684.31;12602645;23;20027;-62
2023/02/19 06:36:53;;;;;;;0.35;0.10;;;;;;;12.33;67.72;100686.03;12594189;23;20026;-63
2023/02/19 06:41:56;;;;;;;0.95;0.10;;;;;;;12.35;67.19;100688.53;12594385;23;20354;-62
2023/02/19 06:46:57;;;;;;;0.73;0.15;;;;;;;12.34;67.52;100708.41;12596721;23;20361;-62
2023/02/19 06:52:00;;;;;;;1.35;0.20;;;;;;;12.18;67.74;100720.13;12596900;23;20387;-62
2023/02/19 06:57:02;;;;;;;0.68;0.40;;;;;;;12.05;68.26;100721.56;12594505;23;20018;-62
2023/02/19 07:02:03;;;;;;;1.00;0.30;;;;;;;12.05;68.21;100737.72;12596873;23;20069;-62
2023/02/19 07:07:05;;;;;;;0.50;0.20;;;;;;;12.03;68.18;100738.94;12593077;23;20029;-61
2023/02/19 07:12:06;;;;;;;1.33;0.20;;;;;;;12.02;68.58;100738.06;12593189;23;20022;-62
2023/02/19 07:17:08;;;;;;;2.92;0.20;;;;;;;12.07;68.22;100754.56;12595703;23;20030;-62
2023/02/19 07:22:09;;;;;;;1.65;0.38;;;;;;;12.13;68.24;100752.19;12594988;23;20027;-62
2023/02/19 07:27:10;;;;;;;2.20;0.28;;;;;;;12.10;68.12;100751.53;12594664;23;20022;-62
2023/02/19 07:32:12;;;;;;;2.00;0.32;;;;;;;12.10;68.39;100759.59;12592510;23;20368;-62
2023/02/19 07:37:13;;;;;;;2.05;0.30;;;;;;;12.09;68.36;100765.16;12588157;23;20018;-62
2023/02/19 07:42:15;;;;;;;1.83;0.65;;;;;;;12.14;67.89;100778.94;12599753;23;20085;-62
2023/02/19 07:47:16;;;;;;;2.45;1.08;;;;;;;12.09;68.14;100787.56;12595079;23;20029;-62
2023/02/19 07:52:17;;;;;;;0.88;0.30;;;;;;;12.16;68.27;100789.53;12595108;23;20022;-62
2023/02/19 07:57:19;;;;;;;2.38;0.30;;;;;;;12.16;68.03;100797.63;12594241;23;20073;-62
2023/02/19 08:07:40;;;;;;;4.40;0.70;;;;;;;12.19;67.97;100794.59;12594876;23;20038;-62
2023/02/19 08:18:02;;;;;;;2.65;0.52;;;;;;;12.12;68.29;100824.09;12593720;23;20073;-61
2023/02/19 08:23:03;;;;;;;3.95;0.60;;;;;;;11.99;68.42;100838.13;12593779;23;20100;-61
2023/02/19 08:28:06;;;;;;;1.30;0.40;;;;;;;11.85;68.66;100845.03;12592897;23;20038;-61
2023/02/19 08:33:10;;;;;;;1.90;0.70;;;;;;;11.73;69.05;100864.41;12569034;23;20054;-61
2023/02/19 08:38:12;;;;;;;2.35;0.80;;;;;;;11.58;69.84;100870.50;12596173;23;20029;-60
2023/02/19 08:43:16;;;;;;;2.15;0.50;;;;;;;11.57;70.36;100871.50;12595225;23;20386;-60
2023/02/19 08:48:17;;;;;;;2.15;0.50;;;;;;;11.57;70.00;100876.91;12598121;23;20022;-61
2023/02/19 08:53:18;;;;;;;4.68;0.90;;;;;;;11.74;69.83;100882.25;12597706;23;20031;-60
2023/02/19 08:58:20;;;;;;;3.05;0.50;;;;;;;11.85;69.98;100885.44;12598285;23;20960;-61
2023/02/19 09:03:21;;;;;;;1.33;0.73;;;;;;;11.79;69.86;100893.34;12598557;23;20066;-61
2023/02/19 09:08:23;;;;;;;4.30;0.70;;;;;;;11.93;69.34;100898.09;12597867;23;20549;-61
2023/02/19 09:13:24;;;;;;;8.30;1.45;;;;;;;12.05;69.37;100899.41;12599961;23;20024;-61
2023/02/19 09:18:26;;;;;;;5.90;0.95;;;;;;;12.07;69.26;100923.50;12597245;23;20026;-61
2023/02/19 09:23:27;;;;;;;2.92;0.80;;;;;;;12.18;69.24;100927.66;12597382;23;20026;-61
2023/02/19 09:28:29;;;;;;;2.55;1.13;;;;;;;12.24;69.13;100925.13;12597432;23;20034;-61
2023/02/19 09:33:30;;;;;;;3.55;0.70;;;;;;;12.19;68.83;100914.03;12594022;23;20014;-62
2023/02/19 09:38:31;;;;;;;1.92;0.82;;;;;;;12.22;68.75;100919.09;12596702;23;20022;-61
2023/02/19 09:43:33;;;;;;;4.88;1.15;;;;;;;12.22;69.30;100926.31;12597286;23;20522;-61
2023/02/19 09:48:35;;;;;;;5.95;1.00;;;;;;;12.26;69.30;100924.94;12596398;23;20065;-62
2023/02/19 09:53:43;;;;;;;4.90;1.20;;;;;;;12.38;68.77;100931.66;12597039;23;20052;-62
2023/02/19 09:58:57;;;;;;;5.28;1.30;;;;;;;12.23;69.38;100945.00;12596758;23;20034;-62
2023/02/19 10:03:58;;;;;;;2.33;0.80;;;;;;;11.97;70.12;100956.00;12597148;23;20027;-60
2023/02/19 10:09:24;;;;;;;1.60;0.70;;;;;;;11.98;69.84;100963.06;12595850;23;20014;-60
2023/02/19 10:14:39;;;;;;;3.60;1.10;;;;;;;12.06;69.21;100976.53;12597498;23;20042;-61
2023/02/19 10:19:41;;;;;;;6.90;0.90;;;;;;;12.08;69.10;100993.41;12596521;23;20038;-61
2023/02/19 10:24:44;;;;;;;4.70;1.40;;;;;;;12.04;69.14;100988.50;12595838;23;20038;-61
2023/02/19 10:29:47;;;;;;;3.45;0.70;;;;;;;11.95;69.85;100990.38;12595217;23;20116;-61
2023/02/19 10:35:24;;;;;;;4.20;0.77;;;;;;;12.06;69.47;100997.25;12593497;23;20095;-61
2023/02/19 10:40:27;;;;;;;2.17;0.93;;;;;;;12.07;69.22;101015.13;12455048;23;20477;-61
2023/02/19 10:45:38;;;;;;;3.97;1.67;;;;;;;11.98;69.46;101019.66;12597114;23;20022;-62
2023/02/19 10:50:45;;;;;;;3.47;1.00;;;;;;;11.97;69.81;101030.63;12598082;23;20350;-61
2023/02/19 10:55:47;;;;;;;4.82;2.28;;;;;;;11.63;70.24;101042.31;12598889;23;20038;-61
2023/02/19 11:01:09;;;;;;;9.07;1.85;;;;;;;11.10;72.42;101044.38;12601643;23;20226;-61
2023/02/19 11:06:13;;;;;;;5.45;1.58;;;;;;;11.01;73.18;101045.34;12576449;23;20038;-61
2023/02/19 11:11:34;;;;;;;3.67;0.60;;;;;;;10.95;73.69;101046.81;12578222;23;20030;-62
2023/02/19 11:16:56;;;;;;;1.45;0.60;;;;;;;11.14;73.13;101042.19;12602192;23;20030;-61
2023/02/19 11:21:59;;;;;;;1.40;0.60;;;;;;;11.35;72.50;101041.75;12575491;23;20077;-62
2023/02/19 11:27:05;;;;;;;2.75;1.30;;;;;;;11.51;71.80;101048.03;12600798;23;20018;-62
2023/02/19 11:32:36;;;;;;;7.57;2.08;;;;;;;11.71;71.24;101053.97;12598537;23;20086;-61
2023/02/19 11:37:52;;;;;;;4.20;1.70;;;;;;;12.05;70.64;101046.78;12518500;23;20022;-62
2023/02/19 11:43:08;;;;;;;3.47;1.70;;;;;;;12.39;69.49;101046.56;12561222;23;20030;-62
2023/02/19 11:48:26;;;;;;;3.50;1.42;;;;;;;12.61;67.92;101047.72;12593752;23;20022;-62
2023/02/19 11:53:36;;;;;;;5.03;2.30;;;;;;;12.87;66.79;101036.69;12596041;23;20026;-63
2023/02/19 11:59:00;;;;;;;5.28;2.28;;;;;;;13.19;66.41;101026.78;12594842;23;20034;-63
2023/02/19 12:04:33;;;;;;;3.78;1.63;;;;;;;13.06;64.77;101023.78;12593726;23;20018;-63
2023/02/19 12:09:56;;;;;;;7.22;2.55;;;;;;;13.15;64.23;101025.44;12594139;23;20026;-63
2023/02/19 12:15:08;;;;;;;4.22;0.88;;;;;;;13.31;63.68;101023.69;12593574;23;20075;-63
2023/02/19 12:20:28;;;;;;;4.43;2.13;;;;;;;13.59;64.26;101022.19;12593352;23;20030;-62
2023/02/19 12:26:13;;;;;;;3.25;1.10;;;;;;;13.43;63.27;101030.41;12594225;23;20131;-62
2023/02/19 12:31:42;;;;;;;6.47;1.08;;;;;;;13.03;65.37;101043.88;12594219;23;20449;-63
2023/02/19 12:37:11;;;;;;;4.32;1.17;;;;;;;12.95;65.99;101045.75;12592162;23;20026;-62
2023/02/19 12:42:50;;;;;;;4.97;1.25;;;;;;;12.91;66.38;101037.16;12587017;23;20142;-62
2023/02/19 12:48:04;;;;;;;4.05;1.67;;;;;;;12.57;67.33;101035.59;12654039;23;20390;-61
2023/02/19 12:53:14;;;;;;;6.95;1.50;;;;;;;12.68;67.24;101039.78;12656013;23;20029;-61
2023/02/19 12:58:27;;;;;;;10.23;1.60;;;;;;;12.77;67.25;101025.25;12655239;23;20045;-61
2023/02/19 13:03:33;;;;;;;3.95;1.10;;;;;;;12.76;66.45;101022.75;12657954;23;20461;-62
2023/02/19 13:08:51;;;;;;;4.80;1.08;;;;;;;12.86;65.97;101026.91;12654790;23;20029;-63
2023/02/19 13:14:20;;;;;;;5.03;1.35;;;;;;;12.81;65.55;101039.22;12655315;23;20096;-61
2023/02/19 13:19:21;;;;;;;2.95;1.42;;;;;;;12.84;65.49;101038.91;12654543;23;20026;-61
2023/02/19 13:24:28;;;;;;;5.80;1.92;;;;;;;12.85;65.72;101036.00;12652531;23;20018;-61
2023/02/19 13:29:42;;;;;;;6.63;1.08;;;;;;;13.14;65.72;101039.94;12651618;23;20849;-63
2023/02/19 13:35:02;;;;;;;5.45;1.40;;;;;;;13.18;65.08;101046.69;12656345;23;20021;-61
2023/02/19 13:40:19;;;;;;;2.42;0.50;;;;;;;13.20;64.17;101057.31;12655243;23;20057;-61
2023/02/19 13:45:25;;;;;;;3.85;1.00;;;;;;;13.18;63.43;101049.38;12653962;23;20052;-62
2023/02/19 13:50:32;;;;;;;3.17;0.60;;;;;;;13.41;62.52;101049.47;12655601;23;20045;-61
2023/02/19 13:55:45;;;;;;;1.25;1.15;;;;;;;13.53;62.15;101059.88;12658263;23;20030;-62
2023/02/19 14:00:52;;;;;;;4.40;0.95;;;;;;;13.48;61.56;101058.53;12658998;23;20541;-61
2023/02/19 14:05:59;;;;;;;3.17;0.57;;;;;;;13.76;60.94;101062.59;12657678;23;20022;-61
2023/02/19 14:11:01;;;;;;;0.80;0.50;;;;;;;13.94;60.59;101064.97;12653955;23;20026;-61
2023/02/19 14:16:02;;;;;;;2.08;0.40;;;;;;;13.85;60.20;101069.63;12654115;23;20021;-62
2023/02/19 14:21:24;;;;;;;2.08;0.50;;;;;;;13.74;59.66;101067.31;12654675;23;20021;-61
2023/02/19 14:26:29;;;;;;;2.40;0.45;;;;;;;13.67;59.38;101073.44;12653949;23;20045;-62
2023/02/19 14:31:34;;;;;;;2.38;0.35;;;;;;;13.55;58.82;101080.28;12654277;23;20036;-61
2023/02/19 14:36:47;;;;;;;1.27;0.45;;;;;;;13.53;58.90;101087.72;12652962;23;20096;-61
2023/02/19 14:41:56;;;;;;;0.43;0.30;;;;;;;13.44;58.51;101083.38;12653594;23;20030;-61
2023/02/19 14:47:03;;;;;;;2.50;0.20;;;;;;;13.42;58.82;101086.25;12654833;23;20086;-62
2023/02/19 14:52:10;;;;;;;2.08;0.57;;;;;;;13.52;58.56;101075.22;12653458;23;20080;-62
2023/02/19 14:57:51;;;;;;;1.60;0.70;;;;;;;13.56;58.61;101081.94;12649745;23;20022;-62
2023/02/19 15:02:56;;;;;;;1.10;0.30;;;;;;;13.67;58.69;101067.22;12396449;23;20020;-61
2023/02/19 15:08:01;;;;;;;0.40;0.30;;;;;;;13.63;58.75;101082.94;12573448;23;20030;-61
2023/02/19 15:13:07;;;;;;;1.55;0.40;;;;;;;13.59;58.63;101105.91;12655210;23;20386;-61
2023/02/19 15:18:17;;;;;;;2.53;0.38;;;;;;;13.46;58.86;101108.34;12651048;23;20346;-62
2023/02/19 15:23:22;;;;;;;1.85;0.30;;;;;;;13.41;58.97;101116.16;12654376;23;20026;-62
2023/02/19 15:28:24;;;;;;;1.35;0.30;;;;;;;13.28;59.14;101119.38;12651771;23;20034;-61
2023/02/19 15:33:26;;;;;;;1.02;0.30;;;;;;;13.24;59.24;101121.56;12652883;23;20350;-62
2023/02/19 15:38:28;;;;;;;0.28;0.15;;;;;;;13.08;58.75;101122.47;12654178;23;20030;-62
2023/02/19 15:43:40;;;;;;;0.25;0.10;;;;;;;13.11;58.58;101115.88;12660707;23;20045;-62
2023/02/19 15:48:49;;;;;;;1.23;0.20;;;;;;;13.13;58.29;101121.97;12650874;23;20048;-61
2023/02/19 15:53:57;;;;;;;0.22;0.10;;;;;;;13.09;58.38;101126.00;12652116;23;20018;-62
2023/02/19 15:59:21;;;;;;;0.30;0.13;;;;;;;13.00;58.78;101113.56;12652404;23;20383;-62
2023/02/19 16:04:23;;;;;;;0.30;0.20;;;;;;;12.97;58.77;101116.59;12625043;23;20351;-62
2023/02/19 16:09:38;;;;;;;0.40;0.20;;;;;;;12.83;58.71;101097.38;12647623;23;20044;-62
2023/02/19 16:14:40;;;;;;;0.68;0.20;;;;;;;12.67;58.90;101102.81;12650493;23;20089;-61
2023/02/19 16:19:44;;;;;;;0.88;0.30;;;;;;;12.66;59.02;101111.94;12627131;23;20026;-60
2023/02/19 16:24:49;;;;;;;0.68;0.20;;;;;;;12.50;58.99;101108.25;12651946;23;20508;-61
2023/02/19 16:29:51;;;;;;;2.88;0.30;;;;;;;12.46;58.99;101115.00;12652991;23;20018;-61
2023/02/19 16:34:52;;;;;;;1.35;0.50;;;;;;;12.46;59.31;101106.91;12652189;23;20028;-61
2023/02/19 16:40:16;;;;;;;0.88;0.40;;;;;;;12.48;58.92;101123.75;12652900;23;20603;-60
2023/02/19 16:45:18;;;;;;;2.80;0.45;;;;;;;12.56;58.95;101130.16;12609168;23;20022;-61
2023/02/19 16:50:23;;;;;;;1.63;0.40;;;;;;;12.57;59.03;101131.84;12649982;23;20050;-61
2023/02/19 16:55:26;;;;;;;1.83;0.40;;;;;;;12.48;59.29;101148.03;12651004;23;20030;-61
2023/02/19 17:00:29;;;;;;;0.95;0.40;;;;;;;12.52;59.18;101153.94;12650899;23;20018;-61
2023/02/19 17:05:31;;;;;;;0.82;0.50;;;;;;;12.60;58.78;101161.16;12641978;23;20107;-62
2023/02/19 17:10:32;;;;;;;2.40;0.70;;;;;;;12.78;58.74;101164.53;12704411;23;20048;-61
2023/02/19 17:15:34;;;;;;;2.75;1.42;;;;;;;12.80;59.11;101183.25;12703156;23;20024;-62
2023/02/19 17:20:35;;;;;;;5.90;1.67;;;;;;;12.75;59.50;101201.78;12706385;23;20048;-61
2023/02/19 17:25:37;;;;;;;0.90;0.45;;;;;;;12.74;59.15;101216.28;12709171;23;20022;-66
2023/02/19 17:30:38;;;;;;;0.82;0.50;;;;;;;12.59;59.74;101214.25;12707610;23;20092;-61
2023/02/19 17:35:43;;;;;;;3.42;0.80;;;;;;;12.53;59.80;101220.34;12713599;23;20090;-62
2023/02/19 17:40:44;;;;;;;1.05;0.60;;;;;;;12.48;59.65;101225.41;12695890;23;20053;-62
2023/02/19 17:45:46;;;;;;;1.70;0.60;;;;;;;12.53;59.64;101236.50;12708633;23;20101;-61
2023/02/19 17:50:49;;;;;;;2.45;0.95;;;;;;;12.60;59.65;101234.84;12707706;23;20033;-62
2023/02/19 17:55:50;;;;;;;6.50;1.02;;;;;;;12.59;59.80;101238.53;12700877;23;20022;-61
2023/02/19 18:00:51;;;;;;;1.25;0.60;;;;;;;12.55;59.50;101252.53;12702388;23;20026;-61
2023/02/19 18:05:53;;;;;;;1.88;0.77;;;;;;;12.47;59.55;101265.00;12685155;23;20062;-64
2023/02/19 18:10:55;;;;;;;3.50;0.93;;;;;;;12.39;60.10;101264.97;12688021;23;20207;-63
2023/02/19 18:15:57;;;;;;;2.05;0.73;;;;;;;12.32;59.81;101271.19;12656478;23;20049;-63
2023/02/19 18:20:59;;;;;;;2.63;1.00;;;;;;;12.54;59.33;101281.38;12656679;23;20029;-63
2023/02/19 18:26:00;;;;;;;2.17;0.90;;;;;;;12.59;59.49;101280.88;12699139;23;20072;-63
2023/02/19 18:31:02;;;;;;;3.50;1.00;;;;;;;12.47;59.84;101281.16;12677930;23;20157;-62
2023/02/19 18:36:09;;;;;;;3.80;1.05;;;;;;;12.52;59.85;101267.22;12697456;23;20028;-62
2023/02/19 18:41:12;;;;;;;4.93;1.50;;;;;;;12.43;60.01;101281.69;12703574;23;20030;-61
2023/02/19 18:46:15;;;;;;;2.55;1.73;;;;;;;12.30;60.45;101284.81;12703997;23;20029;-63
2023/02/19 18:51:16;;;;;;;3.20;1.13;;;;;;;12.15;60.69;101286.50;12707308;23;20014;-62
2023/02/19 18:56:17;;;;;;;5.05;1.48;;;;;;;12.09;61.32;101285.28;12704092;23;20025;-61
2023/02/19 19:01:19;;;;;;;2.40;1.23;;;;;;;12.05;61.02;101275.84;12691674;23;20355;-63
2023/02/19 19:06:20;;;;;;;2.20;1.23;;;;;;;12.25;60.51;101277.25;12675516;23;20923;-62
2023/02/19 19:11:23;;;;;;;2.08;1.17;;;;;;;12.26;60.56;101267.28;12677129;23;20504;-62
2023/02/19 19:16:25;;;;;;;2.75;0.93;;;;;;;12.17;61.54;101265.59;12672499;23;20093;-62
2023/02/19 19:21:27;;;;;;;1.58;0.70;;;;;;;12.10;61.71;101285.13;12698561;23;20017;-61
2023/02/19 19:26:28;;;;;;;2.10;1.05;;;;;;;12.09;61.54;101272.66;12700557;23;20056;-64
2023/02/19 19:31:35;;;;;;;3.03;0.95;;;;;;;12.13;62.13;101273.16;12682091;23;20021;-64
2023/02/19 19:36:37;;;;;;;3.00;1.10;;;;;;;12.16;62.06;101282.78;12689410;23;20030;-64
2023/02/19 19:41:38;;;;;;;3.03;1.02;;;;;;;12.19;61.52;101285.16;12682758;23;20026;-62
2023/02/19 19:46:44;;;;;;;2.60;1.00;;;;;;;12.09;62.44;101296.06;12679810;23;20026;-65
2023/02/19 19:51:46;;;;;;;3.17;1.42;;;;;;;11.97;62.72;101298.22;12683228;23;20024;-66
2023/02/19 19:56:48;;;;;;;3.40;1.38;;;;;;;11.96;62.54;101296.50;12696252;23;20014;-61
2023/02/19 20:01:58;;;;;;;2.85;0.95;;;;;;;12.02;62.11;101303.09;12704523;23;20094;-61
2023/02/19 20:06:59;;;;;;;3.65;1.33;;;;;;;11.99;62.38;101298.06;12701482;23;20041;-65
2023/02/19 20:12:01;;;;;;;3.17;1.25;;;;;;;11.97;63.01;101308.97;12679311;23;20081;-62
2023/02/19 20:17:03;;;;;;;3.03;1.70;;;;;;;11.82;62.70;101314.09;12682815;23;20097;-65
2023/02/19 20:22:04;;;;;;;5.00;2.70;;;;;;;11.72;62.79;101324.13;12695652;23;20021;-64
2023/02/19 20:27:06;;;;;;;3.97;2.22;;;;;;;11.77;62.62;101329.91;12691842;23;20022;-62
2023/02/19 20:32:07;;;;;;;6.05;1.98;;;;;;;11.82;62.53;101341.03;12700640;23;20033;-62
2023/02/19 20:37:09;;;;;;;3.47;2.05;;;;;;;11.94;62.52;101346.19;12695626;23;20022;-62
2023/02/19 20:42:10;;;;;;;6.20;2.13;;;;;;;11.93;62.69;101344.47;12711063;23;20026;-62
2023/02/19 20:47:17;;;;;;;3.97;1.77;;;;;;;11.83;63.43;101342.72;12703031;23;20021;-62
2023/02/19 20:52:19;;;;;;;5.25;2.03;;;;;;;11.84;63.51;101346.25;12703117;23;20053;-62
2023/02/19 20:57:21;;;;;;;6.20;2.42;;;;;;;11.80;63.34;101332.25;12706360;23;20065;-61
2023/02/19 21:02:27;;;;;;;4.18;2.15;;;;;;;11.83;62.61;101331.13;12709581;23;20033;-61
2023/02/19 21:07:29;;;;;;;4.55;2.47;;;;;;;11.88;62.28;101335.00;12711200;23;20041;-63
2023/02/19 21:12:32;;;;;;;6.10;2.67;;;;;;;11.93;62.31;101349.88;12700983;23;20741;-62
2023/02/19 21:17:33;;;;;;;6.88;2.38;;;;;;;12.03;62.30;101356.00;12688495;23;20022;-64
2023/02/19 21:22:35;;;;;;;9.80;2.90;;;;;;;12.03;62.36;101362.22;12691906;23;20034;-63
2023/02/19 21:27:36;;;;;;;4.32;2.72;;;;;;;11.98;62.56;101382.56;12680984;23;20022;-63
2023/02/19 21:32:38;;;;;;;4.55;2.45;;;;;;;11.87;62.88;101386.38;12681367;23;20037;-64
2023/02/19 21:37:43;;;;;;;5.45;2.33;;;;;;;11.66;63.18;101390.25;12676595;23;20025;-65
2023/02/19 21:42:44;;;;;;;3.85;2.22;;;;;;;11.47;64.00;101394.00;12673449;23;20461;-63
2023/02/19 21:47:46;;;;;;;4.50;2.55;;;;;;;11.38;63.86;101391.41;12675054;23;20018;-64
2023/02/19 21:52:47;;;;;;;5.38;2.33;;;;;;;11.31;63.67;101380.38;12676292;23;20410;-64
2023/02/19 21:57:49;;;;;;;5.35;1.90;;;;;;;11.35;63.21;101387.16;12679327;23;20026;-64
2023/02/19 22:02:50;;;;;;;4.88;2.72;;;;;;;11.30;62.69;101384.09;12693020;23;20018;-63
2023/02/19 22:07:54;;;;;;;4.43;2.30;;;;;;;11.27;62.21;101393.31;12650428;23;20501;-64
2023/02/19 22:12:55;;;;;;;5.90;2.97;;;;;;;11.21;62.04;101401.16;12693652;23;20006;-64
2023/02/19 22:17:57;;;;;;;6.10;2.97;;;;;;;11.14;61.79;101403.63;12700798;23;20025;-65
2023/02/19 22:22:58;;;;;;;3.97;2.75;;;;;;;11.14;61.85;101413.53;12687198;23;20026;-64
2023/02/19 22:28:02;;;;;;;7.65;3.38;;;;;;;11.05;61.37;101426.06;12668234;23;20021;-65
2023/02/19 22:33:03;;;;;;;4.95;3.05;;;;;;;11.11;61.59;101420.91;12672238;23;20022;-62
2023/02/19 22:38:05;;;;;;;4.78;2.65;;;;;;;11.04;61.27;101422.53;12695328;23;20445;-64
2023/02/19 22:43:06;;;;;;;4.07;2.63;;;;;;;11.05;61.44;101412.63;12683504;23;20444;-64
2023/02/19 22:48:07;;;;;;;5.88;3.53;;;;;;;10.94;61.08;101415.50;12684167;23;20073;-65
2023/02/19 22:53:09;;;;;;;4.15;2.25;;;;;;;10.94;60.94;101408.31;12688262;23;20081;-65
2023/02/19 22:58:10;;;;;;;5.68;2.70;;;;;;;10.95;60.90;101411.84;12680647;23;20017;-63
2023/02/19 23:03:11;;;;;;;4.75;2.65;;;;;;;10.94;60.60;101399.38;12675846;23;20018;-65
2023/02/19 23:08:13;;;;;;;6.63;2.75;;;;;;;10.82;60.98;101396.94;12683081;23;20029;-65
2023/02/19 23:13:14;;;;;;;5.32;2.88;;;;;;;10.71;60.55;101413.25;12675945;23;20044;-64
2023/02/19 23:18:16;;;;;;;7.93;4.20;;;;;;;10.73;60.60;101418.50;12699467;23;20018;-63
2023/02/19 23:23:17;;;;;;;4.22;3.20;;;;;;;10.58;60.93;101427.03;12691568;23;20037;-64
2023/02/19 23:28:19;;;;;;;5.85;3.17;;;;;;;10.52;60.87;101441.97;12670875;23;20040;-65
2023/02/19 23:33:20;;;;;;;6.40;2.85;;;;;;;10.60;60.54;101440.34;12674106;23;20053;-65
2023/02/19 23:38:21;;;;;;;3.08;2.20;;;;;;;10.47;60.24;101425.41;12666309;23;20045;-63
2023/02/19 23:43:23;;;;;;;2.72;1.85;;;;;;;10.37;59.91;101424.63;12683581;23;20030;-65
2023/02/19 23:48:24;;;;;;;3.22;2.20;;;;;;;10.50;59.61;101418.88;12648316;23;20278;-65
2023/02/19 23:53:26;;;;;;;3.78;1.70;;;;;;;10.45;59.30;101408.59;12667875;23;20026;-63